sensor_id;sensor_type;location;lat;lon;timestamp;pressure;altitude;pressure_sealevel;temperature;humidity
15260;BME280;34462;51.368;12.364;2023-02-28T00:01:44;18978.63;;;-141.84;62.32
15260;BME280;34462;51.368;12.364;2023-02-28T00:04:12;18954.25;;;-141.84;62.19
15260;BME280;34462;51.368;12.364;2023-02-28T00:06:40;18984.72;;;-141.84;62.18
15260;BME280;34462;51.368;12.364;2023-02-28T00:09:09;18996.91;;;-141.84;62.49
15260;BME280;34462;51.368;12.364;2023-02-28T00:11:37;18984.72;;;-141.84;62.39
15260;BME280;34462;51.368;12.364;2023-02-28T00:14:05;18978.63;;;-141.84;62.46
15260;BME280;34462;51.368;12.364;2023-02-28T00:16:35;18984.72;;;-141.84;62.16
15260;BME280;34462;51.368;12.364;2023-02-28T00:19:03;18986.75;;;-141.84;62.19
15260;BME280;34462;51.368;12.364;2023-02-28T00:21:31;18976.59;;;-141.84;62.34
15260;BME280;34462;51.368;12.364;2023-02-28T00:23:59;18972.53;;;-141.84;62.60
15260;BME280;34462;51.368;12.364;2023-02-28T00:26:27;18978.63;;;-141.84;62.77
15260;BME280;34462;51.368;12.364;2023-02-28T00:28:56;18972.53;;;-141.84;63.09
15260;BME280;34462;51.368;12.364;2023-02-28T00:31:24;18990.81;;;-141.84;62.87
15260;BME280;34462;51.368;12.364;2023-02-28T00:33:54;18964.41;;;-141.84;62.84
15260;BME280;34462;51.368;12.364;2023-02-28T00:36:22;19023.34;;;-141.84;62.35
15260;BME280;34462;51.368;12.364;2023-02-28T00:38:50;18990.81;;;-141.84;62.86
15260;BME280;34462;51.368;12.364;2023-02-28T00:41:18;18970.50;;;-141.84;62.78
15260;BME280;34462;51.368;12.364;2023-02-28T00:43:47;18976.59;;;-141.84;63.13
15260;BME280;34462;51.368;12.364;2023-02-28T00:46:15;18996.91;;;-141.84;62.70
15260;BME280;34462;51.368;12.364;2023-02-28T00:48:44;18978.63;;;-141.84;62.65
15260;BME280;34462;51.368;12.364;2023-02-28T00:51:13;18972.53;;;-141.84;62.60
15260;BME280;34462;51.368;12.364;2023-02-28T00:53:41;19005.03;;;-141.84;61.62
15260;BME280;34462;51.368;12.364;2023-02-28T00:56:10;18980.66;;;-141.84;62.60
15260;BME280;34462;51.368;12.364;2023-02-28T00:58:38;18980.66;;;-141.84;62.93
15260;BME280;34462;51.368;12.364;2023-02-28T01:01:06;18982.69;;;-141.84;62.67
15260;BME280;34462;51.368;12.364;2023-02-28T01:03:35;19003.00;;;-141.84;62.94
15260;BME280;34462;51.368;12.364;2023-02-28T01:06:04;18978.63;;;-141.84;62.61
15260;BME280;34462;51.368;12.364;2023-02-28T01:08:34;18990.81;;;-141.84;62.51
15260;BME280;34462;51.368;12.364;2023-02-28T01:11:08;18948.16;;;-141.84;62.77
15260;BME280;34462;51.368;12.364;2023-02-28T01:13:37;19013.16;;;-141.84;62.67
15260;BME280;34462;51.368;12.364;2023-02-28T01:16:07;18998.94;;;-141.84;63.35
15260;BME280;34462;51.368;12.364;2023-02-28T01:18:35;18966.44;;;-141.84;63.50
15260;BME280;34462;51.368;12.364;2023-02-28T01:21:05;18988.78;;;-141.84;63.82
15260;BME280;34462;51.368;12.364;2023-02-28T01:23:35;18954.25;;;-141.84;63.51
15260;BME280;34462;51.368;12.364;2023-02-28T01:26:05;19013.16;;;-141.84;63.60
15260;BME280;34462;51.368;12.364;2023-02-28T01:28:34;18978.63;;;-141.84;63.71
15260;BME280;34462;51.368;12.364;2023-02-28T01:31:02;18988.78;;;-141.84;63.83
15260;BME280;34462;51.368;12.364;2023-02-28T01:33:31;18948.16;;;-141.84;63.99
15260;BME280;34462;51.368;12.364;2023-02-28T01:36:01;18952.22;;;-141.84;64.33
15260;BME280;34462;51.368;12.364;2023-02-28T01:38:30;18954.25;;;-141.84;64.17
15260;BME280;34462;51.368;12.364;2023-02-28T01:41:00;18968.47;;;-141.84;64.33
15260;BME280;34462;51.368;12.364;2023-02-28T01:43:35;18970.50;;;-141.84;64.63
15260;BME280;34462;51.368;12.364;2023-02-28T01:46:19;18984.72;;;-141.84;63.93
15260;BME280;34462;51.368;12.364;2023-02-28T01:48:54;18982.69;;;-141.84;63.61
15260;BME280;34462;51.368;12.364;2023-02-28T01:51:30;19015.19;;;-141.84;63.23
15260;BME280;34462;51.368;12.364;2023-02-28T01:54:03;18978.63;;;-141.84;63.61
15260;BME280;34462;51.368;12.364;2023-02-28T01:56:36;19025.38;;;-141.84;63.40
15260;BME280;34462;51.368;12.364;2023-02-28T01:59:05;18958.31;;;-141.84;64.01
15260;BME280;34462;51.368;12.364;2023-02-28T02:01:33;18935.97;;;-141.84;64.48
15260;BME280;34462;51.368;12.364;2023-02-28T02:04:03;18984.72;;;-141.84;64.51
15260;BME280;34462;51.368;12.364;2023-02-28T02:06:38;18958.31;;;-141.84;63.61
15260;BME280;34462;51.368;12.364;2023-02-28T02:09:08;18998.94;;;-141.84;64.08
15260;BME280;34462;51.368;12.364;2023-02-28T02:11:40;18980.66;;;-141.84;64.30
15260;BME280;34462;51.368;12.364;2023-02-28T02:14:38;18956.28;;;-141.84;64.27
15260;BME280;34462;51.368;12.364;2023-02-28T02:17:22;18990.81;;;-141.84;63.96
15260;BME280;34462;51.368;12.364;2023-02-28T02:26:58;18984.72;;;-141.84;65.71
15260;BME280;34462;51.368;12.364;2023-02-28T02:29:47;18954.25;;;-141.84;65.70
15260;BME280;34462;51.368;12.364;2023-02-28T02:35:40;18942.06;;;-141.84;65.13
15260;BME280;34462;51.368;12.364;2023-02-28T02:38:19;18931.91;;;-141.84;65.59
15260;BME280;34462;51.368;12.364;2023-02-28T02:41:04;18946.13;;;-141.84;65.65
15260;BME280;34462;51.368;12.364;2023-02-28T02:43:40;18935.97;;;-141.84;65.26
15260;BME280;34462;51.368;12.364;2023-02-28T02:46:15;18958.31;;;-141.84;65.58
15260;BME280;34462;51.368;12.364;2023-02-28T02:48:46;18946.13;;;-141.84;66.07
15260;BME280;34462;51.368;12.364;2023-02-28T02:51:21;18952.22;;;-141.84;66.19
15260;BME280;34462;51.368;12.364;2023-02-28T02:53:55;18907.50;;;-141.84;66.12
15260;BME280;34462;51.368;12.364;2023-02-28T02:56:28;18899.38;;;-141.84;66.26
15260;BME280;34462;51.368;12.364;2023-02-28T02:59:03;18960.34;;;-141.84;66.31
15260;BME280;34462;51.368;12.364;2023-02-28T03:01:37;18935.97;;;-141.84;65.83
15260;BME280;34462;51.368;12.364;2023-02-28T03:04:10;18952.22;;;-141.84;65.91
15260;BME280;34462;51.368;12.364;2023-02-28T03:06:41;18940.03;;;-141.84;66.30
15260;BME280;34462;51.368;12.364;2023-02-28T03:09:09;18919.69;;;-141.84;66.88
15260;BME280;34462;51.368;12.364;2023-02-28T03:11:39;18923.78;;;-141.84;66.95
15260;BME280;34462;51.368;12.364;2023-02-28T03:14:25;18923.78;;;-141.84;66.92
15260;BME280;34462;51.368;12.364;2023-02-28T03:17:27;18907.50;;;-141.84;67.56
15260;BME280;34462;51.368;12.364;2023-02-28T03:20:10;18915.63;;;-141.84;67.80
15260;BME280;34462;51.368;12.364;2023-02-28T03:22:57;18911.56;;;-141.84;68.75
15260;BME280;34462;51.368;12.364;2023-02-28T03:25:37;18895.31;;;-141.84;68.66
15260;BME280;34462;51.368;12.364;2023-02-28T03:28:16;18891.25;;;-141.84;68.45
15260;BME280;34462;51.368;12.364;2023-02-28T03:30:52;18905.47;;;-141.84;68.44
15260;BME280;34462;51.368;12.364;2023-02-28T03:33:28;18923.78;;;-141.84;68.66
15260;BME280;34462;51.368;12.364;2023-02-28T03:36:04;18893.28;;;-141.84;68.67
15260;BME280;34462;51.368;12.364;2023-02-28T03:38:42;18879.06;;;-141.84;68.77
15260;BME280;34462;51.368;12.364;2023-02-28T03:41:16;18891.25;;;-141.84;68.54
15260;BME280;34462;51.368;12.364;2023-02-28T03:43:54;18899.38;;;-141.84;68.54
15260;BME280;34462;51.368;12.364;2023-02-28T03:46:28;18885.16;;;-141.84;69.25
15260;BME280;34462;51.368;12.364;2023-02-28T03:49:05;18907.50;;;-141.84;68.72
15260;BME280;34462;51.368;12.364;2023-02-28T03:51:41;18925.81;;;-141.84;69.22
15260;BME280;34462;51.368;12.364;2023-02-28T03:54:17;18907.50;;;-141.84;69.50
15260;BME280;34462;51.368;12.364;2023-02-28T03:56:53;18870.94;;;-141.84;69.37
15260;BME280;34462;51.368;12.364;2023-02-28T03:59:28;18907.50;;;-141.84;69.87
15260;BME280;34462;51.368;12.364;2023-02-28T04:01:58;18897.34;;;-141.84;69.99
15260;BME280;34462;51.368;12.364;2023-02-28T04:04:26;18899.38;;;-141.84;69.02
15260;BME280;34462;51.368;12.364;2023-02-28T04:07:02;18921.75;;;-141.84;69.08
15260;BME280;34462;51.368;12.364;2023-02-28T04:09:32;18911.56;;;-141.84;68.49
15260;BME280;34462;51.368;12.364;2023-02-28T04:12:00;18889.22;;;-141.84;68.38
15260;BME280;34462;51.368;12.364;2023-02-28T04:14:29;18948.16;;;-141.84;67.35
15260;BME280;34462;51.368;12.364;2023-02-28T04:16:57;18870.94;;;-141.84;67.57
15260;BME280;34462;51.368;12.364;2023-02-28T04:19:25;18905.47;;;-141.84;67.82
15260;BME280;34462;51.368;12.364;2023-02-28T04:21:53;18881.09;;;-141.84;67.64
15260;BME280;34462;51.368;12.364;2023-02-28T04:24:26;18889.22;;;-141.84;67.63
15260;BME280;34462;51.368;12.364;2023-02-28T04:26:57;18897.34;;;-141.84;67.46
15260;BME280;34462;51.368;12.364;2023-02-28T04:29:28;18901.41;;;-141.84;67.09
15260;BME280;34462;51.368;12.364;2023-02-28T04:31:58;18911.56;;;-141.84;67.20
15260;BME280;34462;51.368;12.364;2023-02-28T04:34:29;18919.69;;;-141.84;66.66
15260;BME280;34462;51.368;12.364;2023-02-28T04:36:58;18919.69;;;-141.84;66.70
15260;BME280;34462;51.368;12.364;2023-02-28T04:39:43;18921.75;;;-141.84;66.38
15260;BME280;34462;51.368;12.364;2023-02-28T04:42:13;18879.06;;;-141.84;66.13
15260;BME280;34462;51.368;12.364;2023-02-28T04:44:41;18931.91;;;-141.84;66.72
15260;BME280;34462;51.368;12.364;2023-02-28T04:47:09;18935.97;;;-141.84;67.03
15260;BME280;34462;51.368;12.364;2023-02-28T04:49:37;18911.56;;;-141.84;67.03
15260;BME280;34462;51.368;12.364;2023-02-28T04:52:05;18864.84;;;-141.84;66.35
15260;BME280;34462;51.368;12.364;2023-02-28T04:54:36;18919.69;;;-141.84;66.44
15260;BME280;34462;51.368;12.364;2023-02-28T04:57:05;18891.25;;;-141.84;66.89
15260;BME280;34462;51.368;12.364;2023-02-28T04:59:35;18909.53;;;-141.84;67.57
15260;BME280;34462;51.368;12.364;2023-02-28T05:02:04;18875.00;;;-141.84;67.32
15260;BME280;34462;51.368;12.364;2023-02-28T05:04:34;18901.41;;;-141.84;67.00
15260;BME280;34462;51.368;12.364;2023-02-28T05:07:02;18921.75;;;-141.84;66.76
15260;BME280;34462;51.368;12.364;2023-02-28T05:09:31;18931.91;;;-141.84;66.38
15260;BME280;34462;51.368;12.364;2023-02-28T05:11:59;18944.09;;;-141.84;65.63
15260;BME280;34462;51.368;12.364;2023-02-28T05:14:28;18907.50;;;-141.84;65.81
15260;BME280;34462;51.368;12.364;2023-02-28T05:16:57;18905.47;;;-141.84;65.76
15260;BME280;34462;51.368;12.364;2023-02-28T05:19:25;18885.16;;;-141.84;66.00
15260;BME280;34462;51.368;12.364;2023-02-28T05:21:55;18923.78;;;-141.84;66.18
15260;BME280;34462;51.368;12.364;2023-02-28T05:24:23;18879.06;;;-141.84;66.41
15260;BME280;34462;51.368;12.364;2023-02-28T05:26:53;18899.38;;;-141.84;66.57
15260;BME280;34462;51.368;12.364;2023-02-28T05:29:22;18887.19;;;-141.84;66.89
15260;BME280;34462;51.368;12.364;2023-02-28T05:31:50;18913.59;;;-141.84;66.44
15260;BME280;34462;51.368;12.364;2023-02-28T05:34:20;18911.56;;;-141.84;67.08
15260;BME280;34462;51.368;12.364;2023-02-28T05:36:48;18881.09;;;-141.84;67.14
15260;BME280;34462;51.368;12.364;2023-02-28T05:39:17;18891.25;;;-141.84;67.54
15260;BME280;34462;51.368;12.364;2023-02-28T05:41:45;18927.84;;;-141.84;67.78
15260;BME280;34462;51.368;12.364;2023-02-28T05:44:13;18881.09;;;-141.84;67.81
15260;BME280;34462;51.368;12.364;2023-02-28T05:46:41;18891.25;;;-141.84;67.86
15260;BME280;34462;51.368;12.364;2023-02-28T05:49:09;18903.44;;;-141.84;68.29
15260;BME280;34462;51.368;12.364;2023-02-28T05:51:39;18907.50;;;-141.84;68.31
15260;BME280;34462;51.368;12.364;2023-02-28T05:54:08;18891.25;;;-141.84;68.12
15260;BME280;34462;51.368;12.364;2023-02-28T05:56:38;18891.25;;;-141.84;68.03
15260;BME280;34462;51.368;12.364;2023-02-28T05:59:07;18889.22;;;-141.84;67.97
15260;BME280;34462;51.368;12.364;2023-02-28T06:01:37;18879.06;;;-141.84;68.47
15260;BME280;34462;51.368;12.364;2023-02-28T06:04:09;18870.94;;;-141.84;68.45
15260;BME280;34462;51.368;12.364;2023-02-28T06:06:56;18927.84;;;-141.84;67.45
15260;BME280;34462;51.368;12.364;2023-02-28T06:09:25;18889.22;;;-141.84;67.17
15260;BME280;34462;51.368;12.364;2023-02-28T06:11:53;18895.31;;;-141.84;67.29
15260;BME280;34462;51.368;12.364;2023-02-28T06:14:21;18903.44;;;-141.84;67.68
15260;BME280;34462;51.368;12.364;2023-02-28T06:16:49;18866.88;;;-141.84;67.68
15260;BME280;34462;51.368;12.364;2023-02-28T06:19:18;18899.38;;;-141.84;67.90
15260;BME280;34462;51.368;12.364;2023-02-28T06:21:51;18872.97;;;-141.84;67.75
15260;BME280;34462;51.368;12.364;2023-02-28T06:24:23;18895.31;;;-141.84;66.70
15260;BME280;34462;51.368;12.364;2023-02-28T06:26:51;18909.53;;;-141.84;67.28
15260;BME280;34462;51.368;12.364;2023-02-28T06:29:19;18872.97;;;-141.84;67.82
15260;BME280;34462;51.368;12.364;2023-02-28T06:31:48;18883.13;;;-141.84;68.43
15260;BME280;34462;51.368;12.364;2023-02-28T06:34:17;18911.56;;;-141.84;67.00
15260;BME280;34462;51.368;12.364;2023-02-28T06:36:45;18881.09;;;-141.84;67.21
15260;BME280;34462;51.368;12.364;2023-02-28T06:39:13;18905.47;;;-141.84;67.29
15260;BME280;34462;51.368;12.364;2023-02-28T06:41:43;18897.34;;;-141.84;67.04
15260;BME280;34462;51.368;12.364;2023-02-28T06:44:23;18903.44;;;-141.84;66.56
15260;BME280;34462;51.368;12.364;2023-02-28T06:46:51;18901.41;;;-141.84;66.89
15260;BME280;34462;51.368;12.364;2023-02-28T06:49:19;18877.03;;;-141.84;67.02
15260;BME280;34462;51.368;12.364;2023-02-28T06:51:47;18913.59;;;-141.84;66.89
15260;BME280;34462;51.368;12.364;2023-02-28T06:54:16;18933.94;;;-141.84;66.55
15260;BME280;34462;51.368;12.364;2023-02-28T06:56:46;18927.84;;;-141.84;66.17
15260;BME280;34462;51.368;12.364;2023-02-28T06:59:14;18913.59;;;-141.84;65.85
15260;BME280;34462;51.368;12.364;2023-02-28T07:01:43;18948.16;;;-141.84;64.69
15260;BME280;34462;51.368;12.364;2023-02-28T07:04:11;18909.53;;;-141.84;64.90
15260;BME280;34462;51.368;12.364;2023-02-28T07:06:40;18956.28;;;-141.84;64.48
15260;BME280;34462;51.368;12.364;2023-02-28T07:09:08;18948.16;;;-141.84;64.77
15260;BME280;34462;51.368;12.364;2023-02-28T07:11:37;18942.06;;;-141.84;63.39
15260;BME280;34462;51.368;12.364;2023-02-28T07:14:07;18960.34;;;-141.84;63.10
15260;BME280;34462;51.368;12.364;2023-02-28T07:16:36;18950.19;;;-141.84;62.03
15260;BME280;34462;51.368;12.364;2023-02-28T07:19:04;18982.69;;;-141.84;62.26
15260;BME280;34462;51.368;12.364;2023-02-28T07:21:33;18996.91;;;-141.84;61.93
15260;BME280;34462;51.368;12.364;2023-02-28T07:24:01;18974.56;;;-141.84;61.28
15260;BME280;34462;51.368;12.364;2023-02-28T07:26:29;18962.38;;;-141.84;60.77
15260;BME280;34462;51.368;12.364;2023-02-28T07:28:57;19019.28;;;-141.84;60.23
15260;BME280;34462;51.368;12.364;2023-02-28T07:31:27;19000.97;;;-141.84;60.47
15260;BME280;34462;51.368;12.364;2023-02-28T07:33:55;18996.91;;;-141.84;60.30
15260;BME280;34462;51.368;12.364;2023-02-28T07:36:24;19017.25;;;-141.84;59.64
15260;BME280;34462;51.368;12.364;2023-02-28T07:38:52;18984.72;;;-141.84;58.97
15260;BME280;34462;51.368;12.364;2023-02-28T07:41:22;19033.50;;;-141.84;59.07
15260;BME280;34462;51.368;12.364;2023-02-28T07:43:53;19000.97;;;-141.84;58.66
15260;BME280;34462;51.368;12.364;2023-02-28T07:46:22;19017.25;;;-141.84;58.99
15260;BME280;34462;51.368;12.364;2023-02-28T07:48:52;19033.50;;;-141.84;58.30
15260;BME280;34462;51.368;12.364;2023-02-28T07:51:22;19031.47;;;-141.84;57.95
15260;BME280;34462;51.368;12.364;2023-02-28T07:53:50;19035.53;;;-141.84;57.90
15260;BME280;34462;51.368;12.364;2023-02-28T07:56:19;19035.53;;;-141.84;57.29
15260;BME280;34462;51.368;12.364;2023-02-28T07:58:47;19051.78;;;-141.84;56.13
15260;BME280;34462;51.368;12.364;2023-02-28T08:01:15;19098.50;;;-141.84;55.04
15260;BME280;34462;51.368;12.364;2023-02-28T08:03:44;19094.44;;;-141.84;54.56
15260;BME280;34462;51.368;12.364;2023-02-28T08:06:19;19151.34;;;-141.84;54.29
15260;BME280;34462;51.368;12.364;2023-02-28T08:08:48;19094.44;;;-141.84;54.40
15260;BME280;34462;51.368;12.364;2023-02-28T08:11:17;19100.53;;;-141.84;53.71
15260;BME280;34462;51.368;12.364;2023-02-28T08:13:45;19098.50;;;-141.84;53.34
15260;BME280;34462;51.368;12.364;2023-02-28T08:16:14;19086.31;;;-141.84;53.53
15260;BME280;34462;51.368;12.364;2023-02-28T08:18:49;19102.56;;;-141.84;53.13
15260;BME280;34462;51.368;12.364;2023-02-28T08:21:20;19141.19;;;-141.84;52.12
15260;BME280;34462;51.368;12.364;2023-02-28T08:23:50;19110.72;;;-141.84;51.16
15260;BME280;34462;51.368;12.364;2023-02-28T08:26:20;19135.09;;;-141.84;51.71
15260;BME280;34462;51.368;12.364;2023-02-28T08:28:49;19153.38;;;-141.84;50.88
15260;BME280;34462;51.368;12.364;2023-02-28T08:31:17;19163.53;;;-141.84;50.81
15260;BME280;34462;51.368;12.364;2023-02-28T08:33:46;19147.28;;;-141.84;50.62
15260;BME280;34462;51.368;12.364;2023-02-28T08:36:15;19153.38;;;-141.84;50.59
15260;BME280;34462;51.368;12.364;2023-02-28T08:38:45;19163.53;;;-141.84;49.67
15260;BME280;34462;51.368;12.364;2023-02-28T08:41:13;19179.78;;;-141.84;48.93
15260;BME280;34462;51.368;12.364;2023-02-28T08:43:41;19204.19;;;-141.84;48.31
15260;BME280;34462;51.368;12.364;2023-02-28T08:46:13;19183.84;;;-141.84;47.46
15260;BME280;34462;51.368;12.364;2023-02-28T08:48:41;19183.84;;;-141.84;48.01
15260;BME280;34462;51.368;12.364;2023-02-28T08:51:12;19194.03;;;-141.84;47.08
15260;BME280;34462;51.368;12.364;2023-02-28T08:53:44;19222.47;;;-141.84;47.33
15260;BME280;34462;51.368;12.364;2023-02-28T08:56:16;19192.00;;;-141.84;47.15
15260;BME280;34462;51.368;12.364;2023-02-28T08:58:45;19173.69;;;-141.84;46.80
15260;BME280;34462;51.368;12.364;2023-02-28T09:01:16;19187.91;;;-141.84;47.33
15260;BME280;34462;51.368;12.364;2023-02-28T09:03:47;19189.97;;;-141.84;48.07
15260;BME280;34462;51.368;12.364;2023-02-28T09:06:18;19189.97;;;-141.84;47.64
15260;BME280;34462;51.368;12.364;2023-02-28T09:08:48;19187.91;;;-141.84;46.47
15260;BME280;34462;51.368;12.364;2023-02-28T09:11:17;19228.56;;;-141.84;45.93
15260;BME280;34462;51.368;12.364;2023-02-28T09:13:46;19228.56;;;-141.84;46.26
15260;BME280;34462;51.368;12.364;2023-02-28T09:16:16;19210.28;;;-141.84;46.43
15260;BME280;34462;51.368;12.364;2023-02-28T09:18:44;19216.38;;;-141.84;46.76
15260;BME280;34462;51.368;12.364;2023-02-28T09:21:16;19240.75;;;-141.84;47.07
15260;BME280;34462;51.368;12.364;2023-02-28T09:23:48;19244.81;;;-141.84;45.45
15260;BME280;34462;51.368;12.364;2023-02-28T09:26:19;19218.41;;;-141.84;45.38
15260;BME280;34462;51.368;12.364;2023-02-28T09:28:48;19218.41;;;-141.84;44.88
15260;BME280;34462;51.368;12.364;2023-02-28T09:31:20;19263.09;;;-141.84;44.89
15260;BME280;34462;51.368;12.364;2023-02-28T09:33:49;19287.50;;;-141.84;45.31
15260;BME280;34462;51.368;12.364;2023-02-28T09:36:18;19259.03;;;-141.84;45.30
15260;BME280;34462;51.368;12.364;2023-02-28T09:38:50;19285.47;;;-141.84;44.86
15260;BME280;34462;51.368;12.364;2023-02-28T09:41:23;19277.34;;;-141.84;45.11
15260;BME280;34462;51.368;12.364;2023-02-28T09:43:55;19252.94;;;-141.84;44.88
15260;BME280;34462;51.368;12.364;2023-02-28T09:46:32;19250.91;;;-141.84;45.12
15260;BME280;34462;51.368;12.364;2023-02-28T09:49:06;19240.75;;;-141.84;45.10
15260;BME280;34462;51.368;12.364;2023-02-28T09:51:47;19236.69;;;-141.84;44.86
15260;BME280;34462;51.368;12.364;2023-02-28T09:54:21;19196.06;;;-141.84;44.47
15260;BME280;34462;51.368;12.364;2023-02-28T09:56:53;19224.50;;;-141.84;44.85
15260;BME280;34462;51.368;12.364;2023-02-28T09:59:41;19244.81;;;-141.84;44.91
15260;BME280;34462;51.368;12.364;2023-02-28T10:02:33;19228.56;;;-141.84;44.23
15260;BME280;34462;51.368;12.364;2023-02-28T10:05:12;19275.31;;;-141.84;44.47
15260;BME280;34462;51.368;12.364;2023-02-28T10:08:00;19252.94;;;-141.84;44.05
15260;BME280;34462;51.368;12.364;2023-02-28T10:10:40;19313.91;;;-141.84;42.75
15260;BME280;34462;51.368;12.364;2023-02-28T10:13:22;19313.91;;;-141.84;42.74
15260;BME280;34462;51.368;12.364;2023-02-28T10:15:56;19277.34;;;-141.84;42.56
15260;BME280;34462;51.368;12.364;2023-02-28T10:18:31;19295.63;;;-141.84;42.90
15260;BME280;34462;51.368;12.364;2023-02-28T10:21:03;19334.22;;;-141.84;43.29
15260;BME280;34462;51.368;12.364;2023-02-28T10:23:35;19324.06;;;-141.84;42.49
15260;BME280;34462;51.368;12.364;2023-02-28T10:26:12;19340.31;;;-141.84;42.35
15260;BME280;34462;51.368;12.364;2023-02-28T10:28:43;19328.13;;;-141.84;41.89
15260;BME280;34462;51.368;12.364;2023-02-28T10:31:18;19360.66;;;-141.84;41.83
15260;BME280;34462;51.368;12.364;2023-02-28T10:33:47;19311.88;;;-141.84;42.05
15260;BME280;34462;51.368;12.364;2023-02-28T10:36:18;19303.75;;;-141.84;42.36
15260;BME280;34462;51.368;12.364;2023-02-28T10:38:48;19309.84;;;-141.84;42.60
15260;BME280;34462;51.368;12.364;2023-02-28T10:41:29;19328.13;;;-141.84;42.12
15260;BME280;34462;51.368;12.364;2023-02-28T10:44:19;19305.78;;;-141.84;42.30
15260;BME280;34462;51.368;12.364;2023-02-28T10:46:49;19354.56;;;-141.84;42.05
15260;BME280;34462;51.368;12.364;2023-02-28T10:49:22;19334.22;;;-141.84;41.55
15260;BME280;34462;51.368;12.364;2023-02-28T10:51:54;19350.50;;;-141.84;41.50
15260;BME280;34462;51.368;12.364;2023-02-28T10:54:30;19342.34;;;-141.84;42.18
15260;BME280;34462;51.368;12.364;2023-02-28T10:57:20;19354.56;;;-141.84;42.06
15260;BME280;34462;51.368;12.364;2023-02-28T10:59:52;19350.50;;;-141.84;42.51
15260;BME280;34462;51.368;12.364;2023-02-28T11:02:34;19352.53;;;-141.84;42.56
15260;BME280;34462;51.368;12.364;2023-02-28T11:05:23;19362.69;;;-141.84;42.03
15260;BME280;34462;51.368;12.364;2023-02-28T11:07:53;19403.31;;;-141.84;41.89
15260;BME280;34462;51.368;12.364;2023-02-28T11:10:28;19342.34;;;-141.84;42.22
15260;BME280;34462;51.368;12.364;2023-02-28T11:13:01;19368.78;;;-141.84;42.49
15260;BME280;34462;51.368;12.364;2023-02-28T11:15:32;19338.28;;;-141.84;41.84
15260;BME280;34462;51.368;12.364;2023-02-28T11:18:21;19344.41;;;-141.84;41.89
15260;BME280;34462;51.368;12.364;2023-02-28T11:20:53;19397.22;;;-141.84;41.77
15260;BME280;34462;51.368;12.364;2023-02-28T11:23:24;19358.63;;;-141.84;42.11
15260;BME280;34462;51.368;12.364;2023-02-28T11:25:59;19403.31;;;-141.84;42.40
15260;BME280;34462;51.368;12.364;2023-02-28T11:28:31;19362.69;;;-141.84;42.44
15260;BME280;34462;51.368;12.364;2023-02-28T11:31:05;19356.59;;;-141.84;42.32
15260;BME280;34462;51.368;12.364;2023-02-28T11:33:43;19370.81;;;-141.84;42.10
15260;BME280;34462;51.368;12.364;2023-02-28T11:36:15;19364.72;;;-141.84;42.19
15260;BME280;34462;51.368;12.364;2023-02-28T11:38:48;19380.97;;;-141.84;42.25
15260;BME280;34462;51.368;12.364;2023-02-28T11:41:33;19358.63;;;-141.84;42.62
15260;BME280;34462;51.368;12.364;2023-02-28T11:44:24;19336.25;;;-141.84;42.73
15260;BME280;34462;51.368;12.364;2023-02-28T11:47:01;19393.16;;;-141.84;42.92
15260;BME280;34462;51.368;12.364;2023-02-28T11:49:38;19391.13;;;-141.84;43.09
15260;BME280;34462;51.368;12.364;2023-02-28T11:52:21;19366.75;;;-141.84;43.42
15260;BME280;34462;51.368;12.364;2023-02-28T11:55:11;19380.97;;;-141.84;43.47
15260;BME280;34462;51.368;12.364;2023-02-28T11:58:05;19399.25;;;-141.84;42.39
15260;BME280;34462;51.368;12.364;2023-02-28T12:01:13;19370.81;;;-141.84;42.44
15260;BME280;34462;51.368;12.364;2023-02-28T12:03:58;19368.78;;;-141.84;42.56
15260;BME280;34462;51.368;12.364;2023-02-28T12:06:33;19399.25;;;-141.84;43.18
15260;BME280;34462;51.368;12.364;2023-02-28T12:09:28;19452.09;;;-141.84;41.99
15260;BME280;34462;51.368;12.364;2023-02-28T12:12:16;19515.09;;;-141.84;40.52
15260;BME280;34462;51.368;12.364;2023-02-28T12:18:27;19529.31;;;-141.84;39.43
15260;BME280;34462;51.368;12.364;2023-02-28T12:21:11;19533.38;;;-141.84;40.07
15260;BME280;34462;51.368;12.364;2023-02-28T12:24:11;19429.75;;;-141.84;40.89
15260;BME280;34462;51.368;12.364;2023-02-28T12:26:44;19423.66;;;-141.84;42.32
15260;BME280;34462;51.368;12.364;2023-02-28T12:29:19;19415.50;;;-141.84;42.79
15260;BME280;34462;51.368;12.364;2023-02-28T12:31:53;19401.28;;;-141.84;42.45
15260;BME280;34462;51.368;12.364;2023-02-28T12:34:31;19395.19;;;-141.84;42.42
15260;BME280;34462;51.368;12.364;2023-02-28T12:37:07;19380.97;;;-141.84;42.87
15260;BME280;34462;51.368;12.364;2023-02-28T12:39:45;19421.63;;;-141.84;42.88
15260;BME280;34462;51.368;12.364;2023-02-28T12:42:25;19395.19;;;-141.84;43.07
15260;BME280;34462;51.368;12.364;2023-02-28T12:45:01;19427.72;;;-141.84;43.06
15260;BME280;34462;51.368;12.364;2023-02-28T12:47:30;19429.75;;;-141.84;42.61
15260;BME280;34462;51.368;12.364;2023-02-28T12:50:05;19429.75;;;-141.84;42.54
15260;BME280;34462;51.368;12.364;2023-02-28T12:52:43;19509.00;;;-141.84;42.00
15260;BME280;34462;51.368;12.364;2023-02-28T12:55:21;19500.88;;;-141.84;41.72
15260;BME280;34462;51.368;12.364;2023-02-28T12:58:07;19462.25;;;-141.84;41.49
15260;BME280;34462;51.368;12.364;2023-02-28T13:00:46;19468.34;;;-141.84;41.92
15260;BME280;34462;51.368;12.364;2023-02-28T13:03:51;19435.84;;;-141.84;42.13
15260;BME280;34462;51.368;12.364;2023-02-28T13:06:49;19452.09;;;-141.84;42.43
15260;BME280;34462;51.368;12.364;2023-02-28T13:09:23;19452.09;;;-141.84;42.70
15260;BME280;34462;51.368;12.364;2023-02-28T13:11:54;19452.09;;;-141.84;42.89
15260;BME280;34462;51.368;12.364;2023-02-28T13:14:27;19454.13;;;-141.84;42.84